Aérodrome :
LOGIN :

S'inscrire | Disclaimer

   EN    FR    IT 

 










Légende :    VFR   VFR Marginal   IFR   IFR Intensif   IFR Très Intensif
Visi : 
Plafond : 
>= 8 km
>= 3000ft
5 à 8 km
1000 à 3000 ft
1500m à 5 km
500 à 1000 ft
800 à 1500m
200 à 500 ft
< 800m
< 200 ft
Symboles :   Orages  Brouillard  Fortes neiges  Fortes précipitations  Vent > 20 kt
SIGMETs :   Divers  Orages  Givrage  Turbulence  Onde Orograph.  Cendres Volcan.







- Altitude de l'aérodrome : 220 ft
- Code IATA : CWL
- Voir les cartes d'approche


EGFF - Cardiff Rhoose

DERNIER METAR :
  • 200820Z AUTO 06002KT 8000 OVC028 05/05 Q1015

METARs EXPIRÉS :
  • 200750Z AUTO 07004KT 7000 OVC030 05/05 Q1015
  • 200720Z AUTO 06003KT 7000 OVC032 05/05 Q1015
  • 200650Z AUTO 07004KT 8000 OVC034 05/05 Q1014
  • 200620Z AUTO 07003KT 8000 BKN035 05/04 Q1014
  • 200550Z AUTO 05003KT 9000 SCT036 05/04 Q1013

TAF TAF EGFF
Valide du 20 à 06h jusqu'au 21 à 06h UTC


200456Z 2006/2106 05003KT 9999 SCT016
TEMPO 2006/2018 9000 BKN014
PROB30
TEMPO 2006/2018 SHRA BKN008
PROB40 2018/2106 4000 BR
ATIS : +44 1446 729 319
Pas de NOTAMs connus pour ce terrain.



MET'MAP, la Météo Aéronautique d'un coup d'oeil ! - Copyright ORBIFLY Décembre 2007 - Disclaimer

ORBIFLY MET'MAP TEAM :

Programmation & Développement : Alexandra Zaïnal
Conception & Développement : Baudouin d'Aumeries
Co-Programmation & Développement : Marc-Olivier Méhu
Soutien technique & logistique : Manuel Goepfert

Contact : metmap@orbifly.com




SOURCES & CREDITS :

   NOAA